createdAt,value
2024-03-05T00:01:29.165Z,41.55
2024-03-05T00:03:55.978Z,41.95
2024-03-05T00:06:22.747Z,42.63
2024-03-05T00:08:49.486Z,39.78
2024-03-05T00:11:16.324Z,46.17
2024-03-05T00:13:44.284Z,36.03
2024-03-05T00:16:11.096Z,38.80
2024-03-05T00:18:37.847Z,45.33
2024-03-05T00:21:04.850Z,36.63
2024-03-05T00:23:31.807Z,43.90
2024-03-05T00:25:58.537Z,47.13
2024-03-05T00:28:25.985Z,38.40
2024-03-05T00:30:52.750Z,41.25
2024-03-05T00:33:19.523Z,41.20
2024-03-05T00:35:46.349Z,40.13
2024-03-05T00:38:18.638Z,40.53
2024-03-05T00:40:52.906Z,45.05
2024-03-05T00:43:19.851Z,33.50
2024-03-05T00:45:47.596Z,34.08
2024-03-05T00:48:14.537Z,38.97
2024-03-05T00:50:41.258Z,34.60
2024-03-05T00:53:07.997Z,44.83
2024-03-05T00:55:35.025Z,50.85
2024-03-05T00:58:01.755Z,47.33
2024-03-05T01:00:28.750Z,44.65
2024-03-05T01:02:55.527Z,40.58
2024-03-05T01:05:22.253Z,42.70
2024-03-05T01:07:49.189Z,45.72
2024-03-05T01:10:16.094Z,51.55
2024-03-05T01:12:44.847Z,36.22
2024-03-05T01:15:11.748Z,37.65
2024-03-05T01:17:38.618Z,40.05
2024-03-05T01:20:05.855Z,43.55
2024-03-05T01:22:33.537Z,36.50
2024-03-05T01:25:00.363Z,37.58
2024-03-05T01:27:28.643Z,30.10
2024-03-05T01:29:55.456Z,36.67
2024-03-05T01:32:22.389Z,46.83
2024-03-05T01:34:49.861Z,38.85
2024-03-05T01:37:16.751Z,42.72
2024-03-05T01:39:43.842Z,50.13
2024-03-05T01:42:10.593Z,37.72
2024-03-05T01:44:37.370Z,43.80
2024-03-05T01:47:04.493Z,47.13
2024-03-05T01:49:32.508Z,36.67
2024-03-05T01:51:59.753Z,44.95
2024-03-05T01:54:29.468Z,31.90
2024-03-05T01:57:01.240Z,35.67
2024-03-05T01:59:28.170Z,39.40
2024-03-05T02:01:55.136Z,40.65
2024-03-05T02:04:24.022Z,38.67
2024-03-05T02:06:55.200Z,35.80
2024-03-05T02:09:22.835Z,32.63
2024-03-05T02:11:56.465Z,36.25
2024-03-05T02:14:30.336Z,30.95
2024-03-05T02:17:01.504Z,38.53
2024-03-05T02:19:30.246Z,33.63
2024-03-05T02:21:59.105Z,35.30
2024-03-05T02:24:25.844Z,41.42
2024-03-05T02:26:53.707Z,33.42
2024-03-05T02:29:20.806Z,32.60
2024-03-05T02:31:47.993Z,35.67
2024-03-05T02:34:15.602Z,46.63
2024-03-05T02:36:42.347Z,32.80
2024-03-05T02:39:09.071Z,26.10
2024-03-05T02:41:36.168Z,24.73
2024-03-05T02:44:03.914Z,30.33
2024-03-05T02:46:30.840Z,32.65
2024-03-05T02:48:58.046Z,24.75
2024-03-05T02:51:25.450Z,30.42
2024-03-05T02:53:52.160Z,28.05
2024-03-05T02:56:19.057Z,31.33
2024-03-05T02:58:45.911Z,30.25
2024-03-05T03:01:13.636Z,23.35
2024-03-05T03:04:11.481Z,31.67
2024-03-05T03:06:38.190Z,35.55
2024-03-05T03:09:04.934Z,25.45
2024-03-05T03:11:31.822Z,29.30
2024-03-05T03:13:58.657Z,23.80
2024-03-05T03:16:25.444Z,27.42
2024-03-05T03:18:52.243Z,37.28
2024-03-05T03:21:19.193Z,22.90
2024-03-05T03:23:45.914Z,24.20
2024-03-05T03:26:12.920Z,24.48
2024-03-05T03:28:40.444Z,22.80
2024-03-05T03:31:11.851Z,24.27
2024-03-05T03:33:40.343Z,28.70
2024-03-05T03:36:07.705Z,28.45
2024-03-05T03:38:37.468Z,23.95
2024-03-05T03:41:06.889Z,36.28
2024-03-05T03:43:33.955Z,25.50
2024-03-05T03:46:00.727Z,20.95
2024-03-05T03:48:27.516Z,15.90
2024-03-05T03:50:54.226Z,23.42
2024-03-05T03:53:21.355Z,24.08
2024-03-05T03:55:48.150Z,31.70
2024-03-05T03:58:15.805Z,23.65
2024-03-05T04:00:43.528Z,20.33
2024-03-05T04:03:10.328Z,20.42
2024-03-05T04:05:37.103Z,22.33
2024-03-05T04:08:05.170Z,22.30
2024-03-05T04:10:32.930Z,21.75
2024-03-05T04:12:59.794Z,30.35
2024-03-05T04:15:26.525Z,34.55
2024-03-05T04:17:53.389Z,23.38
2024-03-05T04:20:21.321Z,27.05
2024-03-05T04:22:48.393Z,28.02
2024-03-05T04:25:15.744Z,32.33
2024-03-05T04:27:48.471Z,27.70
2024-03-05T04:30:15.897Z,27.40
2024-03-05T04:32:58.328Z,17.52
2024-03-05T04:35:28.866Z,32.97
2024-03-05T04:37:57.288Z,24.33
2024-03-05T04:40:24.373Z,30.70
2024-03-05T04:42:51.248Z,29.00
2024-03-05T04:45:18.780Z,24.48
2024-03-05T04:47:45.815Z,23.75
2024-03-05T04:50:13.802Z,24.40
2024-03-05T04:52:40.543Z,26.10
2024-03-05T04:55:07.898Z,29.25
2024-03-05T04:57:35.654Z,41.25
2024-03-05T05:00:02.669Z,23.42
2024-03-05T05:02:29.516Z,26.70
2024-03-05T05:04:56.303Z,28.95
2024-03-05T05:07:24.929Z,29.58
2024-03-05T05:09:51.762Z,28.75
2024-03-05T05:12:18.762Z,23.20
2024-03-05T05:14:45.488Z,25.52
2024-03-05T05:17:14.372Z,28.58
2024-03-05T05:19:42.350Z,25.73
2024-03-05T05:22:09.193Z,30.98
2024-03-05T05:24:37.501Z,29.73
2024-03-05T05:27:04.807Z,27.73
2024-03-05T05:29:40.062Z,30.33
2024-03-05T05:32:09.278Z,28.40
2024-03-05T05:34:37.034Z,25.65
2024-03-05T05:37:05.860Z,29.02
2024-03-05T05:39:33.694Z,23.52
2024-03-05T05:42:00.551Z,29.90
2024-03-05T05:44:27.303Z,27.02
2024-03-05T05:46:54.183Z,28.63
2024-03-05T05:49:21.315Z,27.80
2024-03-05T05:51:48.625Z,29.08
2024-03-05T05:54:19.757Z,24.80
2024-03-05T05:56:49.556Z,30.40
2024-03-05T05:59:16.950Z,32.35
2024-03-05T06:01:45.011Z,26.20
2024-03-05T06:04:12.753Z,21.17
2024-03-05T06:06:40.004Z,22.73
2024-03-05T06:09:09.747Z,23.58
2024-03-05T06:11:37.944Z,26.90
2024-03-05T06:14:06.109Z,38.80
2024-03-05T06:16:33.618Z,22.38
2024-03-05T06:19:01.042Z,25.67
2024-03-05T06:21:28.136Z,23.65
2024-03-05T06:23:54.909Z,26.55
2024-03-05T06:26:22.654Z,29.08
2024-03-05T06:28:49.661Z,29.52
2024-03-05T06:31:17.074Z,32.60
2024-03-05T06:33:43.929Z,30.33
2024-03-05T06:36:12.660Z,27.33
2024-03-05T06:38:39.444Z,22.95
2024-03-05T06:41:06.383Z,26.35
2024-03-05T06:43:42.964Z,27.05
2024-03-05T06:46:11.150Z,21.88
2024-03-05T06:48:39.368Z,22.55
2024-03-05T06:51:17.567Z,20.23
2024-03-05T06:54:03.298Z,22.05
2024-03-05T06:56:42.510Z,28.00
2024-03-05T06:59:11.494Z,24.30
2024-03-05T07:01:38.709Z,22.17
2024-03-05T07:04:07.913Z,25.33
2024-03-05T07:06:35.292Z,29.15
2024-03-05T07:09:02.503Z,28.08
2024-03-05T07:11:30.689Z,27.25
2024-03-05T07:13:59.014Z,25.48
2024-03-05T07:16:25.996Z,22.65
2024-03-05T07:18:57.024Z,26.30
2024-03-05T07:21:25.674Z,20.13
2024-03-05T07:23:54.944Z,20.98
2024-03-05T07:26:22.858Z,27.20
2024-03-05T07:28:49.984Z,27.77
2024-03-05T07:31:18.973Z,28.10
2024-03-05T07:33:49.270Z,23.00
2024-03-05T07:36:19.051Z,31.42
2024-03-05T07:38:45.945Z,23.67
2024-03-05T07:41:18.216Z,32.13
2024-03-05T07:43:53.258Z,35.55
2024-03-05T07:46:20.464Z,19.50
2024-03-05T07:48:47.413Z,22.77
2024-03-05T07:51:19.535Z,31.90
2024-03-05T07:53:51.507Z,21.50
2024-03-05T07:56:18.469Z,22.30
2024-03-05T07:58:45.932Z,34.05
2024-03-05T08:01:12.945Z,26.95
2024-03-05T08:03:41.187Z,27.20
2024-03-05T08:06:07.947Z,24.50
2024-03-05T08:08:34.868Z,21.25
2024-03-05T08:11:01.766Z,27.42
2024-03-05T08:13:29.624Z,24.48
2024-03-05T08:15:56.515Z,26.10
2024-03-05T08:18:23.265Z,28.50
2024-03-05T08:20:51.209Z,23.33
2024-03-05T08:23:18.169Z,22.27
2024-03-05T08:25:49.179Z,25.00
2024-03-05T08:28:15.937Z,21.75
2024-03-05T08:30:43.719Z,25.42
2024-03-05T08:33:10.801Z,21.88
2024-03-05T08:35:37.570Z,30.60
2024-03-05T08:38:04.692Z,24.92
2024-03-05T08:40:34.526Z,22.58
2024-03-05T08:43:05.040Z,23.63
2024-03-05T08:45:32.627Z,25.40
2024-03-05T08:47:59.813Z,19.35
2024-03-05T08:50:30.306Z,20.17
2024-03-05T08:52:59.350Z,25.83
2024-03-05T08:55:27.666Z,20.40
2024-03-05T08:57:55.124Z,27.00
2024-03-05T09:00:32.726Z,24.75
2024-03-05T09:03:13.265Z,21.92
2024-03-05T09:05:44.224Z,18.92
2024-03-05T09:08:13.780Z,21.63
2024-03-05T09:10:40.846Z,15.75
2024-03-05T09:13:07.732Z,17.50
2024-03-05T09:18:05.610Z,16.23
2024-03-05T09:20:32.491Z,20.17
2024-03-05T09:25:29.653Z,20.27
2024-03-05T09:27:56.468Z,25.90
2024-03-05T09:30:23.275Z,13.70
2024-03-05T09:32:50.034Z,18.70
2024-03-05T09:35:17.100Z,18.35
2024-03-05T09:37:47.048Z,22.35
2024-03-05T09:40:20.892Z,26.23
2024-03-05T09:42:48.445Z,25.50
2024-03-05T09:45:17.744Z,34.85
2024-03-05T09:47:45.828Z,27.77
2024-03-05T09:50:14.148Z,24.00
2024-03-05T09:52:41.639Z,26.52
2024-03-05T09:55:09.971Z,30.33
2024-03-05T09:57:40.840Z,21.45
2024-03-05T10:00:11.486Z,30.95
2024-03-05T10:02:39.647Z,28.77
2024-03-05T10:05:10.974Z,31.33
2024-03-05T10:07:38.135Z,44.67
2024-03-05T10:10:13.076Z,29.13
2024-03-05T10:12:41.143Z,14.73
2024-03-05T10:15:22.262Z,25.83
2024-03-05T10:17:54.838Z,19.38
2024-03-05T10:20:29.339Z,14.38
2024-03-05T10:22:59.486Z,20.33
2024-03-05T10:25:28.389Z,24.20
2024-03-05T10:27:56.506Z,28.20
2024-03-05T10:30:26.684Z,22.92
2024-03-05T10:33:00.902Z,22.85
2024-03-05T10:35:30.323Z,21.57
2024-03-05T10:38:00.430Z,17.27
2024-03-05T10:40:33.030Z,22.20
2024-03-05T10:43:05.579Z,22.70
2024-03-05T10:45:38.645Z,31.80
2024-03-05T10:48:08.503Z,22.48
2024-03-05T10:50:38.277Z,21.98
2024-03-05T10:53:08.392Z,15.52
2024-03-05T10:55:35.722Z,25.02
2024-03-05T10:58:13.344Z,18.63
2024-03-05T11:00:43.553Z,21.38
2024-03-05T11:03:12.439Z,19.15
2024-03-05T11:05:49.036Z,25.40
2024-03-05T11:08:19.466Z,23.33
2024-03-05T11:11:04.044Z,15.35
2024-03-05T11:13:33.409Z,14.30
2024-03-05T11:16:03.856Z,17.38
2024-03-05T11:18:35.449Z,12.07
2024-03-05T11:21:16.090Z,23.73
2024-03-05T11:23:51.974Z,14.82
2024-03-05T11:26:24.249Z,14.68
2024-03-05T11:28:57.738Z,20.33
2024-03-05T11:31:29.034Z,17.63
2024-03-05T11:34:11.257Z,17.88
2024-03-05T11:36:38.172Z,19.55
2024-03-05T11:39:16.084Z,30.02
2024-03-05T11:41:44.274Z,12.18
2024-03-05T11:44:31.014Z,15.52
2024-03-05T11:46:58.132Z,13.70
2024-03-05T11:49:25.253Z,16.02
2024-03-05T11:51:52.204Z,18.85
2024-03-05T11:54:22.628Z,13.98
2024-03-05T11:57:02.025Z,18.85
2024-03-05T11:59:38.428Z,15.07
2024-03-05T12:02:11.596Z,23.10
2024-03-05T12:04:44.079Z,14.98
2024-03-05T12:07:14.505Z,15.65
2024-03-05T12:09:41.995Z,18.30
2024-03-05T12:12:12.254Z,16.73
2024-03-05T12:14:40.691Z,17.90
2024-03-05T12:17:14.049Z,20.65
2024-03-05T12:19:41.632Z,15.57
2024-03-05T12:22:10.142Z,18.92
2024-03-05T12:24:38.043Z,27.35
2024-03-05T12:27:06.822Z,15.23
2024-03-05T12:29:37.556Z,14.90
2024-03-05T12:32:06.422Z,16.77
2024-03-05T12:34:34.862Z,18.58
2024-03-05T12:37:02.302Z,15.02
2024-03-05T12:39:31.768Z,20.55
2024-03-05T12:42:05.696Z,17.33
2024-03-05T12:44:33.321Z,13.85
2024-03-05T12:47:14.352Z,14.93
2024-03-05T12:49:47.959Z,16.85
2024-03-05T12:54:48.093Z,18.95
2024-03-05T12:57:29.243Z,20.98
2024-03-05T12:59:59.418Z,21.63
2024-03-05T13:02:26.239Z,21.20
2024-03-05T13:04:54.730Z,29.50
2024-03-05T13:07:23.256Z,15.80
2024-03-05T13:09:50.007Z,25.00
2024-03-05T13:12:18.189Z,19.45
2024-03-05T13:14:45.043Z,19.92
2024-03-05T13:17:11.830Z,23.30
2024-03-05T13:19:38.708Z,24.08
2024-03-05T13:22:05.792Z,17.75
2024-03-05T13:24:32.559Z,15.35
2024-03-05T13:27:03.452Z,23.05
2024-03-05T13:29:30.165Z,20.20
2024-03-05T13:31:56.990Z,25.45
2024-03-05T13:34:24.262Z,20.48
2024-03-05T13:36:51.149Z,26.67
2024-03-05T13:39:23.445Z,24.55
2024-03-05T13:41:54.733Z,25.25
2024-03-05T13:44:23.722Z,19.17
2024-03-05T13:46:52.384Z,25.70
2024-03-05T13:49:20.977Z,23.90
2024-03-05T13:51:47.929Z,28.77
2024-03-05T13:54:14.737Z,24.27
2024-03-05T13:56:44.262Z,25.40
2024-03-05T13:59:12.410Z,26.73
2024-03-05T14:01:40.508Z,23.50
2024-03-05T14:04:13.513Z,23.50
2024-03-05T14:06:40.546Z,22.27
2024-03-05T14:09:10.114Z,24.42
2024-03-05T14:11:37.974Z,32.92
2024-03-05T14:14:05.032Z,21.27
2024-03-05T14:16:35.220Z,24.70
2024-03-05T14:19:02.054Z,31.92
2024-03-05T14:21:31.587Z,22.35
2024-03-05T14:23:59.122Z,34.65
2024-03-05T14:26:26.505Z,27.98
2024-03-05T14:28:53.489Z,33.83
2024-03-05T14:31:21.074Z,26.65
2024-03-05T14:33:49.280Z,25.90
2024-03-05T14:36:16.766Z,26.30
2024-03-05T14:38:44.362Z,27.20
2024-03-05T14:41:12.635Z,23.30
2024-03-05T14:43:40.309Z,21.73
2024-03-05T14:46:07.919Z,22.08
2024-03-05T14:48:35.935Z,26.48
2024-03-05T14:51:06.874Z,17.95
2024-03-05T14:53:34.609Z,24.05
2024-03-05T14:56:02.838Z,21.33
2024-03-05T14:58:30.384Z,31.90
2024-03-05T15:00:57.191Z,33.35
2024-03-05T15:03:24.096Z,28.27
2024-03-05T15:05:50.897Z,24.02
2024-03-05T15:08:17.756Z,26.98
2024-03-05T15:10:44.698Z,23.05
2024-03-05T15:13:11.740Z,30.08
2024-03-05T15:15:38.608Z,28.98
2024-03-05T15:18:06.765Z,25.13
2024-03-05T15:20:34.474Z,22.00
2024-03-05T15:23:02.021Z,22.35
2024-03-05T15:25:29.109Z,27.42
2024-03-05T15:28:01.945Z,26.70
2024-03-05T15:30:35.457Z,24.67
2024-03-05T15:33:03.517Z,23.83
2024-03-05T15:35:30.613Z,30.17
2024-03-05T15:37:58.922Z,24.00
2024-03-05T15:40:26.450Z,25.67
2024-03-05T15:42:56.263Z,29.42
2024-03-05T15:45:29.169Z,24.52
2024-03-05T15:47:56.502Z,20.63
2024-03-05T15:50:25.870Z,24.00
2024-03-05T15:52:54.656Z,25.98
2024-03-05T15:55:25.170Z,24.48
2024-03-05T15:57:59.242Z,25.70
2024-03-05T16:00:30.643Z,25.83
2024-03-05T16:03:01.322Z,23.77
2024-03-05T16:05:34.977Z,28.67
2024-03-05T16:08:07.839Z,25.55
2024-03-05T16:10:41.913Z,22.13
2024-03-05T16:13:14.816Z,21.20
2024-03-05T16:15:45.573Z,27.05
2024-03-05T16:18:12.983Z,31.13
2024-03-05T16:20:43.345Z,24.42
2024-03-05T16:23:13.564Z,27.63
2024-03-05T16:25:41.291Z,34.72
2024-03-05T16:28:14.344Z,30.38
2024-03-05T16:30:41.282Z,27.45
2024-03-05T16:33:08.127Z,32.08
2024-03-05T16:35:36.983Z,27.13
2024-03-05T16:38:05.392Z,36.58
2024-03-05T16:40:36.598Z,50.67
2024-03-05T16:43:04.201Z,30.63
2024-03-05T16:45:31.151Z,32.25
2024-03-05T16:48:06.337Z,23.80
2024-03-05T16:50:33.643Z,26.85
2024-03-05T16:53:00.869Z,30.13
2024-03-05T16:55:28.796Z,31.63
2024-03-05T16:58:00.572Z,29.25
2024-03-05T17:00:31.293Z,25.33
2024-03-05T17:03:01.764Z,26.73
2024-03-05T17:05:34.336Z,34.47
2024-03-05T17:08:06.151Z,36.03
2024-03-05T17:10:33.194Z,31.85
2024-03-05T17:13:05.136Z,37.63
2024-03-05T17:15:39.806Z,43.40
2024-03-05T17:18:07.971Z,35.55
2024-03-05T17:20:34.877Z,37.42
2024-03-05T17:23:04.056Z,38.00
2024-03-05T17:25:39.863Z,38.55
2024-03-05T17:28:09.966Z,38.35
2024-03-05T17:30:39.204Z,38.10
2024-03-05T17:33:13.740Z,33.20
2024-03-05T17:35:42.376Z,42.75
2024-03-05T17:38:11.536Z,38.40
2024-03-05T17:40:38.899Z,41.00
2024-03-05T17:43:05.945Z,39.17
2024-03-05T17:45:33.127Z,38.25
2024-03-05T17:48:06.264Z,40.80
2024-03-05T17:50:33.941Z,38.03
2024-03-05T17:53:00.805Z,46.28
2024-03-05T17:55:28.722Z,42.30
2024-03-05T17:57:57.052Z,52.47
2024-03-05T18:00:36.756Z,41.53
2024-03-05T18:03:05.474Z,47.10
2024-03-05T18:05:32.248Z,43.50
2024-03-05T18:07:59.088Z,53.03
2024-03-05T18:10:26.111Z,56.92
2024-03-05T18:12:53.650Z,48.90
2024-03-05T18:15:21.728Z,46.47
2024-03-05T18:17:50.571Z,37.40
2024-03-05T18:20:20.293Z,46.40
2024-03-05T18:22:47.855Z,50.83
2024-03-05T18:25:18.662Z,45.17
2024-03-05T18:27:49.360Z,48.70
2024-03-05T18:30:25.724Z,41.80
2024-03-05T18:32:53.478Z,43.95
2024-03-05T18:35:23.248Z,36.78
2024-03-05T18:37:51.490Z,38.17
2024-03-05T18:40:18.581Z,34.65
2024-03-05T18:42:48.667Z,28.45
2024-03-05T18:45:19.390Z,30.80
2024-03-05T18:47:59.203Z,29.13
2024-03-05T18:50:32.644Z,33.10
2024-03-05T18:53:00.506Z,37.35
2024-03-05T18:55:30.872Z,36.08
2024-03-05T18:57:57.954Z,36.47
2024-03-05T19:00:25.134Z,28.98
2024-03-05T19:02:52.275Z,30.20
2024-03-05T19:05:20.405Z,30.48
2024-03-05T19:07:49.023Z,24.23
2024-03-05T19:10:20.492Z,26.85
2024-03-05T19:12:48.987Z,24.40
2024-03-05T19:15:18.424Z,28.50
2024-03-05T19:17:48.847Z,25.05
2024-03-05T19:20:16.177Z,23.13
2024-03-05T19:22:43.361Z,23.48
2024-03-05T19:25:12.610Z,26.70
2024-03-05T19:27:43.511Z,23.17
2024-03-05T19:30:17.872Z,20.38
2024-03-05T19:32:46.069Z,25.42
2024-03-05T19:35:17.224Z,17.80
2024-03-05T19:37:46.448Z,24.30
2024-03-05T19:40:17.824Z,17.13
2024-03-05T19:42:46.328Z,27.25
2024-03-05T19:45:14.547Z,16.70
2024-03-05T19:47:41.656Z,18.92
2024-03-05T19:50:09.087Z,17.33
2024-03-05T19:52:36.853Z,17.88
2024-03-05T19:55:04.010Z,23.20
2024-03-05T19:57:30.820Z,20.48
2024-03-05T20:00:00.276Z,16.58
2024-03-05T20:02:29.059Z,19.73
2024-03-05T20:04:55.920Z,19.70
2024-03-05T20:07:22.691Z,23.55
2024-03-05T20:09:49.591Z,16.75
2024-03-05T20:12:16.495Z,18.88
2024-03-05T20:14:43.396Z,17.95
2024-03-05T20:17:10.269Z,16.23
2024-03-05T20:19:40.265Z,14.90
2024-03-05T20:22:08.593Z,16.23
2024-03-05T20:24:36.160Z,16.70
2024-03-05T20:27:10.334Z,20.25
2024-03-05T20:29:39.602Z,21.73
2024-03-05T20:32:07.677Z,15.27
2024-03-05T20:34:35.023Z,19.83
2024-03-05T20:37:02.095Z,17.80
2024-03-05T20:39:28.929Z,15.75
2024-03-05T20:41:55.797Z,15.35
2024-03-05T20:44:22.536Z,14.15
2024-03-05T20:46:49.290Z,16.30
2024-03-05T20:49:16.291Z,17.00
2024-03-05T20:51:43.028Z,14.18
2024-03-05T20:54:10.005Z,11.85
2024-03-05T20:56:36.778Z,16.55
2024-03-05T20:59:03.606Z,17.65
2024-03-05T21:01:31.157Z,14.30
2024-03-05T21:04:01.434Z,16.23
2024-03-05T21:06:28.351Z,17.42
2024-03-05T21:08:55.070Z,21.85
2024-03-05T21:11:24.004Z,15.25
2024-03-05T21:13:51.044Z,20.05
2024-03-05T21:16:20.049Z,14.57
2024-03-05T21:18:46.919Z,18.77
2024-03-05T21:21:15.322Z,19.33
2024-03-05T21:23:42.800Z,16.08
2024-03-05T21:26:20.992Z,16.65
2024-03-05T21:28:56.933Z,13.25
2024-03-05T21:31:25.310Z,15.02
2024-03-05T21:33:52.061Z,14.13
2024-03-05T21:36:18.845Z,11.90
2024-03-05T21:38:45.577Z,15.50
2024-03-05T21:41:13.619Z,13.80
2024-03-05T21:43:41.131Z,8.77
2024-03-05T21:46:09.286Z,15.55
2024-03-05T21:48:36.063Z,11.10
2024-03-05T21:51:09.245Z,18.88
2024-03-05T21:53:39.379Z,17.73
2024-03-05T21:56:06.773Z,20.00
2024-03-05T21:58:34.418Z,14.40
2024-03-05T22:01:01.433Z,15.43
2024-03-05T22:03:29.841Z,13.18
2024-03-05T22:05:59.763Z,14.43
2024-03-05T22:10:59.549Z,19.33
2024-03-05T22:13:26.455Z,17.75
2024-03-05T22:15:53.301Z,15.55
2024-03-05T22:18:20.196Z,13.50
2024-03-05T22:20:46.940Z,9.15
2024-03-05T22:23:14.127Z,12.90
2024-03-05T22:25:41.221Z,12.60
2024-03-05T22:28:08.171Z,17.70
2024-03-05T22:30:35.100Z,11.15
2024-03-05T22:33:01.876Z,17.73
2024-03-05T22:35:28.681Z,15.85
2024-03-05T22:37:58.080Z,12.10
2024-03-05T22:40:25.299Z,14.43
2024-03-05T22:42:52.874Z,15.05
2024-03-05T22:45:22.530Z,12.77
2024-03-05T22:47:49.972Z,13.15
2024-03-05T22:50:17.384Z,19.17
2024-03-05T22:52:45.762Z,13.10
2024-03-05T22:55:13.090Z,13.85
2024-03-05T22:57:39.966Z,14.57
2024-03-05T23:00:24.066Z,17.00
2024-03-05T23:02:54.919Z,17.27
2024-03-05T23:05:22.093Z,13.80
2024-03-05T23:07:49.216Z,12.75
2024-03-05T23:10:17.625Z,13.57
2024-03-05T23:12:45.750Z,15.60
2024-03-05T23:15:16.420Z,12.05
2024-03-05T23:17:44.421Z,13.48
2024-03-05T23:20:12.564Z,15.68
2024-03-05T23:22:40.473Z,14.70
2024-03-05T23:25:08.213Z,14.15
2024-03-05T23:27:36.890Z,11.10
2024-03-05T23:30:07.560Z,16.35
2024-03-05T23:32:34.566Z,13.77
2024-03-05T23:35:01.671Z,15.52
2024-03-05T23:37:28.587Z,13.00
2024-03-05T23:39:55.463Z,18.00
2024-03-05T23:42:22.280Z,16.35
2024-03-05T23:44:49.254Z,23.88
2024-03-05T23:47:16.289Z,14.23
2024-03-05T23:49:44.611Z,17.80
2024-03-05T23:52:11.773Z,13.35
2024-03-05T23:54:38.614Z,15.27
2024-03-05T23:57:05.433Z,16.98
2024-03-05T23:59:32.309Z,14.65
